createdAt,value
2023-03-06T00:00:05.443Z,11.49
2023-03-06T00:01:17.108Z,11.49
2023-03-06T00:02:21.016Z,11.50
2023-03-06T00:03:26.568Z,11.47
2023-03-06T00:04:30.461Z,11.45
2023-03-06T00:05:34.083Z,11.42
2023-03-06T00:06:37.989Z,11.42
2023-03-06T00:07:41.886Z,11.42
2023-03-06T00:08:45.385Z,11.43
2023-03-06T00:09:48.937Z,11.44
2023-03-06T00:10:52.558Z,11.43
2023-03-06T00:11:56.355Z,11.45
2023-03-06T00:13:01.634Z,11.49
2023-03-06T00:14:05.478Z,11.48
2023-03-06T00:15:09.490Z,11.52
2023-03-06T00:16:13.540Z,11.52
2023-03-06T00:17:18.427Z,11.52
2023-03-06T00:18:22.019Z,11.57
2023-03-06T00:19:25.531Z,11.59
2023-03-06T00:20:29.457Z,11.65
2023-03-06T00:21:32.961Z,11.65
2023-03-06T00:22:36.939Z,11.63
2023-03-06T00:23:41.776Z,11.61
2023-03-06T00:24:45.946Z,11.64
2023-03-06T00:25:49.915Z,11.62
2023-03-06T00:26:53.973Z,11.63
2023-03-06T00:27:58.061Z,11.65
2023-03-06T00:29:01.847Z,11.61
2023-03-06T00:30:06.036Z,11.61
2023-03-06T00:31:10.896Z,11.63
2023-03-06T00:32:14.357Z,11.61
2023-03-06T00:33:18.329Z,11.61
2023-03-06T00:34:22.103Z,11.64
2023-03-06T00:35:25.621Z,11.61
2023-03-06T00:36:29.148Z,11.60
2023-03-06T00:37:33.082Z,11.63
2023-03-06T00:38:38.155Z,11.63
2023-03-06T00:39:42.108Z,11.62
2023-03-06T00:40:45.822Z,11.59
2023-03-06T00:41:49.764Z,11.64
2023-03-06T00:42:53.721Z,11.62
2023-03-06T00:43:57.657Z,11.63
2023-03-06T00:45:01.566Z,11.62
2023-03-06T00:46:06.500Z,11.60
2023-03-06T00:47:10.646Z,11.65
2023-03-06T00:48:14.362Z,11.61
2023-03-06T00:49:18.172Z,11.64
2023-03-06T00:50:21.699Z,11.62
2023-03-06T00:51:25.648Z,11.57
2023-03-06T00:52:29.207Z,11.63
2023-03-06T00:53:32.708Z,11.60
2023-03-06T00:54:36.158Z,11.61
2023-03-06T00:55:40.241Z,11.64
2023-03-06T00:56:44.157Z,11.62
2023-03-06T00:57:48.192Z,11.62
2023-03-06T00:58:51.716Z,11.61
2023-03-06T00:59:55.611Z,11.55
2023-03-06T01:00:59.362Z,11.59
2023-03-06T01:02:03.103Z,11.58
2023-03-06T01:03:06.568Z,11.56
2023-03-06T01:04:10.101Z,11.59
2023-03-06T01:05:14.795Z,11.60
2023-03-06T01:06:18.809Z,11.58
2023-03-06T01:07:22.781Z,11.60
2023-03-06T01:08:27.400Z,11.57
2023-03-06T01:09:33.400Z,11.62
2023-03-06T01:10:41.030Z,11.62
2023-03-06T01:11:45.735Z,11.64
2023-03-06T01:12:49.537Z,11.63
2023-03-06T01:13:54.973Z,11.65
2023-03-06T01:14:58.782Z,11.64
2023-03-06T01:16:14.913Z,11.61
2023-03-06T01:17:18.914Z,11.63
2023-03-06T01:18:22.492Z,11.67
2023-03-06T01:19:26.387Z,11.66
2023-03-06T01:20:30.428Z,11.69
2023-03-06T01:21:33.952Z,11.70
2023-03-06T01:22:37.962Z,11.68
2023-03-06T01:23:41.657Z,11.67
2023-03-06T01:24:45.181Z,11.65
2023-03-06T01:25:48.606Z,11.68
2023-03-06T01:26:52.704Z,11.68
2023-03-06T01:27:57.498Z,11.74
2023-03-06T01:29:01.689Z,11.82
2023-03-06T01:30:05.617Z,11.81
2023-03-06T01:31:09.399Z,11.76
2023-03-06T01:32:13.371Z,11.71
2023-03-06T01:33:18.697Z,11.76
2023-03-06T01:34:22.694Z,11.72
2023-03-06T01:35:26.740Z,11.70
2023-03-06T01:36:30.329Z,11.73
2023-03-06T01:37:35.731Z,11.73
2023-03-06T01:38:40.091Z,11.73
2023-03-06T01:39:44.013Z,11.74
2023-03-06T01:40:47.910Z,11.71
2023-03-06T01:41:51.821Z,11.72
2023-03-06T01:42:55.444Z,11.76
2023-03-06T01:43:59.163Z,11.74
2023-03-06T01:45:09.886Z,11.73
2023-03-06T01:46:34.328Z,11.74
2023-03-06T01:47:38.989Z,11.74
2023-03-06T01:48:42.490Z,11.78
2023-03-06T01:49:46.502Z,11.73
2023-03-06T01:50:51.060Z,11.71
2023-03-06T01:52:10.041Z,11.70
2023-03-06T01:53:13.579Z,11.71
2023-03-06T01:54:29.557Z,11.66
2023-03-06T01:55:34.597Z,11.70
2023-03-06T01:56:38.614Z,11.67
2023-03-06T01:57:45.202Z,11.70
2023-03-06T01:58:50.115Z,11.72
2023-03-06T02:00:06.861Z,11.71
2023-03-06T02:01:31.275Z,11.67
2023-03-06T02:02:35.246Z,11.62
2023-03-06T02:03:39.143Z,11.63
2023-03-06T02:04:44.981Z,11.63
2023-03-06T02:05:48.893Z,11.62
2023-03-06T02:06:52.439Z,11.61
2023-03-06T02:07:56.256Z,11.60
2023-03-06T02:09:00.316Z,11.63
2023-03-06T02:10:04.395Z,11.67
2023-03-06T02:11:10.909Z,11.63
2023-03-06T02:12:17.599Z,11.69
2023-03-06T02:13:21.132Z,11.73
2023-03-06T02:14:28.420Z,11.76
2023-03-06T02:15:31.972Z,11.74
2023-03-06T02:16:35.455Z,11.73
2023-03-06T02:17:39.308Z,11.77
2023-03-06T02:18:43.494Z,11.73
2023-03-06T02:20:08.325Z,11.72
2023-03-06T02:21:14.722Z,11.66
2023-03-06T02:22:18.765Z,11.62
2023-03-06T02:23:22.640Z,11.67
2023-03-06T02:24:38.156Z,11.66
2023-03-06T02:25:46.123Z,11.67
2023-03-06T02:26:50.011Z,11.63
2023-03-06T02:27:54.053Z,11.64
2023-03-06T02:28:59.770Z,11.66
2023-03-06T02:30:09.194Z,11.69
2023-03-06T02:31:32.994Z,11.68
2023-03-06T02:32:37.199Z,11.69
2023-03-06T02:33:41.113Z,11.71
2023-03-06T02:34:55.221Z,11.78
2023-03-06T02:36:06.345Z,11.78
2023-03-06T02:37:11.093Z,11.77
2023-03-06T02:38:17.472Z,11.76
2023-03-06T02:39:25.250Z,11.75
2023-03-06T02:40:29.071Z,11.75
2023-03-06T02:41:32.582Z,11.73
2023-03-06T02:42:36.230Z,11.75
2023-03-06T02:43:40.599Z,11.76
2023-03-06T02:44:44.085Z,11.76
2023-03-06T02:45:49.176Z,11.78
2023-03-06T02:46:52.789Z,11.79
2023-03-06T02:47:56.697Z,11.84
2023-03-06T02:49:00.416Z,11.80
2023-03-06T02:50:03.984Z,11.81
2023-03-06T02:51:07.576Z,11.84
2023-03-06T02:52:11.320Z,11.83
2023-03-06T02:53:17.393Z,11.83
2023-03-06T02:54:21.244Z,11.82
2023-03-06T02:55:26.399Z,11.81
2023-03-06T02:56:32.118Z,11.85
2023-03-06T02:57:36.126Z,11.87
2023-03-06T02:58:40.095Z,11.87
2023-03-06T02:59:43.643Z,11.81
2023-03-06T03:00:48.736Z,11.83
2023-03-06T03:01:52.572Z,11.85
2023-03-06T03:02:56.115Z,11.85
2023-03-06T03:03:59.652Z,11.81
2023-03-06T03:05:04.638Z,11.84
2023-03-06T03:06:08.946Z,11.84
2023-03-06T03:07:13.989Z,11.82
2023-03-06T03:08:19.011Z,11.85
2023-03-06T03:09:22.696Z,11.81
2023-03-06T03:10:26.404Z,11.84
2023-03-06T03:11:30.352Z,11.79
2023-03-06T03:12:34.683Z,11.82
2023-03-06T03:13:38.769Z,11.81
2023-03-06T03:14:44.014Z,11.78
2023-03-06T03:16:02.193Z,11.77
2023-03-06T03:17:05.948Z,11.77
2023-03-06T03:18:11.373Z,11.82
2023-03-06T03:19:15.290Z,11.81
2023-03-06T03:20:21.084Z,11.83
2023-03-06T03:21:24.657Z,11.85
2023-03-06T03:22:30.552Z,11.82
2023-03-06T03:23:34.043Z,11.84
2023-03-06T03:24:37.985Z,11.82
2023-03-06T03:25:41.685Z,11.81
2023-03-06T03:26:45.675Z,11.85
2023-03-06T03:27:52.631Z,11.87
2023-03-06T03:28:56.506Z,11.94
2023-03-06T03:30:00.360Z,11.94
2023-03-06T03:31:07.003Z,11.92
2023-03-06T03:32:11.242Z,11.93
2023-03-06T03:33:14.854Z,11.90
2023-03-06T03:34:19.566Z,11.95
2023-03-06T03:35:24.079Z,11.96
2023-03-06T03:36:28.101Z,11.93
2023-03-06T03:37:32.106Z,11.93
2023-03-06T03:38:36.414Z,11.90
2023-03-06T03:39:40.559Z,11.93
2023-03-06T03:40:44.590Z,11.95
2023-03-06T03:41:48.875Z,11.95
2023-03-06T03:42:52.802Z,11.93
2023-03-06T03:43:57.226Z,11.97
2023-03-06T03:45:01.174Z,11.96
2023-03-06T03:46:05.076Z,11.98
2023-03-06T03:47:09.280Z,11.98
2023-03-06T03:48:13.229Z,12.02
2023-03-06T03:49:17.634Z,12.02
2023-03-06T03:50:21.220Z,12.01
2023-03-06T03:51:24.885Z,11.98
2023-03-06T03:52:31.016Z,11.98
2023-03-06T03:53:35.079Z,12.07
2023-03-06T03:54:38.991Z,12.08
2023-03-06T03:55:42.507Z,12.06
2023-03-06T03:56:46.049Z,12.04
2023-03-06T03:57:58.057Z,12.01
2023-03-06T03:59:02.047Z,12.02
2023-03-06T04:00:16.508Z,12.03
2023-03-06T04:01:29.420Z,12.04
2023-03-06T04:02:33.555Z,11.99
2023-03-06T04:03:46.011Z,12.01
2023-03-06T04:04:52.129Z,12.01
2023-03-06T04:05:58.835Z,12.02
2023-03-06T04:07:05.277Z,12.08
2023-03-06T04:08:08.802Z,12.05
2023-03-06T04:09:16.691Z,12.04
2023-03-06T04:10:20.851Z,12.07
2023-03-06T04:11:26.851Z,12.08
2023-03-06T04:12:30.530Z,12.08
2023-03-06T04:13:34.068Z,12.03
2023-03-06T04:14:37.696Z,12.02
2023-03-06T04:15:42.008Z,12.03
2023-03-06T04:16:46.550Z,12.05
2023-03-06T04:17:50.178Z,12.04
2023-03-06T04:18:57.544Z,12.03
2023-03-06T04:20:02.027Z,12.06
2023-03-06T04:21:07.152Z,12.06
2023-03-06T04:22:10.713Z,12.00
2023-03-06T04:23:16.254Z,12.04
2023-03-06T04:24:20.729Z,12.02
2023-03-06T04:25:24.788Z,12.01
2023-03-06T04:26:28.842Z,12.00
2023-03-06T04:27:32.835Z,12.00
2023-03-06T04:28:37.065Z,11.99
2023-03-06T04:29:41.157Z,11.98
2023-03-06T04:30:45.026Z,12.00
2023-03-06T04:31:49.487Z,12.00
2023-03-06T04:32:53.174Z,11.96
2023-03-06T04:33:57.141Z,11.95
2023-03-06T04:35:01.195Z,11.90
2023-03-06T04:36:12.787Z,11.86
2023-03-06T04:37:24.268Z,11.78
2023-03-06T04:38:28.262Z,11.77
2023-03-06T04:39:32.243Z,11.73
2023-03-06T04:40:37.057Z,11.71
2023-03-06T04:41:42.007Z,11.67
2023-03-06T04:42:45.845Z,11.62
2023-03-06T04:43:49.298Z,11.59
2023-03-06T04:44:52.882Z,11.47
2023-03-06T04:45:56.703Z,11.41
2023-03-06T04:47:00.314Z,11.42
2023-03-06T04:48:03.886Z,11.47
2023-03-06T04:49:07.721Z,11.42
2023-03-06T04:50:12.166Z,11.43
2023-03-06T04:51:16.283Z,11.47
2023-03-06T04:52:19.918Z,11.44
2023-03-06T04:53:23.391Z,11.40
2023-03-06T04:54:27.415Z,11.45
2023-03-06T04:55:31.610Z,11.40
2023-03-06T04:56:35.554Z,11.32
2023-03-06T04:57:40.582Z,11.33
2023-03-06T04:58:44.772Z,11.31
2023-03-06T04:59:48.269Z,11.31
2023-03-06T05:00:51.899Z,11.24
2023-03-06T05:01:55.459Z,11.22
2023-03-06T05:03:02.977Z,11.23
2023-03-06T05:04:06.987Z,11.29
2023-03-06T05:05:11.737Z,11.32
2023-03-06T05:06:15.610Z,11.32
2023-03-06T05:07:19.285Z,11.30
2023-03-06T05:08:24.648Z,11.33
2023-03-06T05:09:28.222Z,11.32
2023-03-06T05:10:31.903Z,11.38
2023-03-06T05:11:35.335Z,11.40
2023-03-06T05:12:39.862Z,11.42
2023-03-06T05:13:43.538Z,11.34
2023-03-06T05:14:48.096Z,11.32
2023-03-06T05:15:52.032Z,11.30
2023-03-06T05:16:56.028Z,11.18
2023-03-06T05:17:59.694Z,11.11
2023-03-06T05:19:03.566Z,11.09
2023-03-06T05:20:08.560Z,11.02
2023-03-06T05:21:12.362Z,10.99
2023-03-06T05:22:15.838Z,11.02
2023-03-06T05:23:19.281Z,11.02
2023-03-06T05:24:22.743Z,11.09
2023-03-06T05:25:26.434Z,11.15
2023-03-06T05:26:30.243Z,11.18
2023-03-06T05:27:33.870Z,11.15
2023-03-06T05:28:37.487Z,11.18
2023-03-06T05:29:41.519Z,11.17
2023-03-06T05:30:45.057Z,11.18
2023-03-06T05:31:48.784Z,11.19
2023-03-06T05:32:52.967Z,11.22
2023-03-06T05:33:57.867Z,11.21
2023-03-06T05:35:01.762Z,11.22
2023-03-06T05:36:06.236Z,11.27
2023-03-06T05:37:09.937Z,11.24
2023-03-06T05:38:13.677Z,11.25
2023-03-06T05:39:17.588Z,11.22
2023-03-06T05:40:21.553Z,11.24
2023-03-06T05:41:25.084Z,11.28
2023-03-06T05:42:29.540Z,11.26
2023-03-06T05:43:33.496Z,11.29
2023-03-06T05:44:37.070Z,11.28
2023-03-06T05:45:41.053Z,11.32
2023-03-06T05:46:44.680Z,11.33
2023-03-06T05:47:48.655Z,11.34
2023-03-06T05:48:56.192Z,11.40
2023-03-06T05:49:59.858Z,11.35
2023-03-06T05:51:03.906Z,11.33
2023-03-06T05:52:08.120Z,11.31
2023-03-06T05:53:11.708Z,11.28
2023-03-06T05:54:15.608Z,11.30
2023-03-06T05:55:21.641Z,11.28
2023-03-06T05:56:25.276Z,11.25
2023-03-06T05:57:29.339Z,11.23
2023-03-06T05:58:33.187Z,11.26
2023-03-06T05:59:36.857Z,11.23
2023-03-06T06:00:40.272Z,11.28
2023-03-06T06:01:44.281Z,11.33
2023-03-06T06:02:48.088Z,11.28
2023-03-06T06:03:52.090Z,11.29
2023-03-06T06:04:55.818Z,11.27
2023-03-06T06:05:59.288Z,11.27
2023-03-06T06:07:02.803Z,11.32
2023-03-06T06:08:06.493Z,11.32
2023-03-06T06:09:12.836Z,11.33
2023-03-06T06:10:18.230Z,11.29
2023-03-06T06:11:22.199Z,11.34
2023-03-06T06:12:26.198Z,11.29
2023-03-06T06:13:30.104Z,11.34
2023-03-06T06:14:36.795Z,11.34
2023-03-06T06:15:40.353Z,11.35
2023-03-06T06:16:44.138Z,11.40
2023-03-06T06:17:48.105Z,11.39
2023-03-06T06:18:52.054Z,11.40
2023-03-06T06:19:55.738Z,11.40
2023-03-06T06:20:59.140Z,11.39
2023-03-06T06:22:04.643Z,11.38
2023-03-06T06:23:08.284Z,11.39
2023-03-06T06:24:12.141Z,11.39
2023-03-06T06:25:16.096Z,11.44
2023-03-06T06:26:20.091Z,11.44
2023-03-06T06:27:23.580Z,11.43
2023-03-06T06:28:27.358Z,11.42
2023-03-06T06:29:31.023Z,11.43
2023-03-06T06:30:34.983Z,11.43
2023-03-06T06:31:38.949Z,11.45
2023-03-06T06:32:42.823Z,11.47
2023-03-06T06:33:46.663Z,11.44
2023-03-06T06:34:50.160Z,11.46
2023-03-06T06:35:54.196Z,11.42
2023-03-06T06:36:57.793Z,11.40
2023-03-06T06:38:01.221Z,11.42
2023-03-06T06:39:05.301Z,11.42
2023-03-06T06:40:09.551Z,11.43
2023-03-06T06:41:36.019Z,11.42
2023-03-06T06:42:40.124Z,11.45
2023-03-06T06:43:44.344Z,11.46
2023-03-06T06:44:47.893Z,11.52
2023-03-06T06:45:52.188Z,11.53
2023-03-06T06:47:21.746Z,11.58
2023-03-06T06:48:20.601Z,11.59
2023-03-06T06:49:24.624Z,11.57
2023-03-06T06:50:28.240Z,11.51
2023-03-06T06:51:33.510Z,11.50
2023-03-06T06:52:37.367Z,11.50
2023-03-06T06:53:40.912Z,11.49
2023-03-06T06:54:44.387Z,11.55
2023-03-06T06:55:47.873Z,11.51
2023-03-06T06:56:51.601Z,11.50
2023-03-06T06:57:55.502Z,11.49
2023-03-06T06:59:15.781Z,11.46
2023-03-06T07:00:21.378Z,11.48
2023-03-06T07:01:24.872Z,11.47
2023-03-06T07:02:28.815Z,11.45
2023-03-06T07:03:32.818Z,11.41
2023-03-06T07:04:36.731Z,11.41
2023-03-06T07:05:40.337Z,11.42
2023-03-06T07:06:44.026Z,11.49
2023-03-06T07:07:47.547Z,11.48
2023-03-06T07:08:51.336Z,11.47
2023-03-06T07:09:55.807Z,11.48
2023-03-06T07:11:00.031Z,11.42
2023-03-06T07:12:03.600Z,11.40
2023-03-06T07:13:07.144Z,11.45
2023-03-06T07:14:10.979Z,11.43
2023-03-06T07:15:16.159Z,11.46
2023-03-06T07:16:19.988Z,11.42
2023-03-06T07:17:23.833Z,11.42
2023-03-06T07:18:28.126Z,11.40
2023-03-06T07:19:32.232Z,11.38
2023-03-06T07:20:36.928Z,11.44
2023-03-06T07:21:40.468Z,11.46
2023-03-06T07:22:50.713Z,11.49
2023-03-06T07:23:58.119Z,11.44
2023-03-06T07:25:02.096Z,11.49
2023-03-06T07:26:05.839Z,11.50
2023-03-06T07:27:09.278Z,11.45
2023-03-06T07:28:13.120Z,11.44
2023-03-06T07:29:17.287Z,11.43
2023-03-06T07:30:22.022Z,11.45
2023-03-06T07:31:27.072Z,11.43
2023-03-06T07:32:31.059Z,11.43
2023-03-06T07:33:35.430Z,11.49
2023-03-06T07:34:39.103Z,11.50
2023-03-06T07:35:43.244Z,11.48
2023-03-06T07:36:46.769Z,11.42
2023-03-06T07:37:50.376Z,11.40
2023-03-06T07:38:54.631Z,11.44
2023-03-06T07:39:58.228Z,11.44
2023-03-06T07:41:02.082Z,11.48
2023-03-06T07:42:06.286Z,11.53
2023-03-06T07:43:19.043Z,11.54
2023-03-06T07:44:39.218Z,11.56
2023-03-06T07:45:42.900Z,11.57
2023-03-06T07:46:46.407Z,11.65
2023-03-06T07:47:52.656Z,12.19
2023-03-06T07:48:56.264Z,12.45
2023-03-06T07:50:03.594Z,12.37
2023-03-06T07:51:08.661Z,12.38
2023-03-06T07:52:13.709Z,12.19
2023-03-06T07:53:17.678Z,12.37
2023-03-06T07:54:21.227Z,12.53
2023-03-06T07:55:25.120Z,12.77
2023-03-06T07:56:29.241Z,13.35
2023-03-06T07:57:32.828Z,13.85
2023-03-06T07:58:37.799Z,13.90
2023-03-06T07:59:41.846Z,14.33
2023-03-06T08:00:45.830Z,15.12
2023-03-06T08:01:49.870Z,15.53
2023-03-06T08:02:53.834Z,15.79
2023-03-06T08:03:57.936Z,15.49
2023-03-06T08:05:01.573Z,15.25
2023-03-06T08:06:16.898Z,15.01
2023-03-06T08:07:20.504Z,15.11
2023-03-06T08:08:24.379Z,14.96
2023-03-06T08:09:28.078Z,14.64
2023-03-06T08:10:31.595Z,14.65
2023-03-06T08:11:35.706Z,14.44
2023-03-06T08:12:39.915Z,14.22
2023-03-06T08:13:43.536Z,14.06
2023-03-06T08:14:47.423Z,14.06
2023-03-06T08:15:51.152Z,14.08
2023-03-06T08:16:57.702Z,13.97
2023-03-06T08:18:01.892Z,13.99
2023-03-06T08:19:06.132Z,13.89
2023-03-06T08:20:10.972Z,13.91
2023-03-06T08:21:16.137Z,13.88
2023-03-06T08:22:20.058Z,13.79
2023-03-06T08:23:23.933Z,13.81
2023-03-06T08:24:27.569Z,13.83
2023-03-06T08:25:31.135Z,13.75
2023-03-06T08:26:36.103Z,13.74
2023-03-06T08:27:40.042Z,13.76
2023-03-06T08:28:53.757Z,14.48
2023-03-06T08:29:57.371Z,15.02
2023-03-06T08:31:08.781Z,15.77
2023-03-06T08:32:12.955Z,16.63
2023-03-06T08:33:16.501Z,17.27
2023-03-06T08:34:21.762Z,18.19
2023-03-06T08:35:25.543Z,19.05
2023-03-06T08:36:29.514Z,19.09
2023-03-06T08:37:33.544Z,19.58
2023-03-06T08:38:37.624Z,19.92
2023-03-06T08:39:41.741Z,20.49
2023-03-06T08:40:45.334Z,20.94
2023-03-06T08:41:48.790Z,21.38
2023-03-06T08:42:52.263Z,21.52
2023-03-06T08:43:55.932Z,21.74
2023-03-06T08:44:59.334Z,21.89
2023-03-06T08:46:03.532Z,22.02
2023-03-06T08:48:10.307Z,22.85
2023-03-06T08:49:14.096Z,22.33
2023-03-06T08:50:17.694Z,21.78
2023-03-06T08:51:21.873Z,21.82
2023-03-06T08:52:25.889Z,22.08
2023-03-06T08:53:42.001Z,22.56
2023-03-06T08:54:47.580Z,22.78
2023-03-06T08:55:51.515Z,22.10
2023-03-06T08:56:55.566Z,21.91
2023-03-06T08:57:59.562Z,21.01
2023-03-06T08:59:04.368Z,20.45
2023-03-06T09:00:10.061Z,20.09
2023-03-06T09:01:19.005Z,19.74
2023-03-06T09:02:22.520Z,19.41
2023-03-06T09:03:26.637Z,18.96
2023-03-06T09:04:31.713Z,18.56
2023-03-06T09:05:35.220Z,18.27
2023-03-06T09:06:41.152Z,18.11
2023-03-06T09:07:44.799Z,17.78
2023-03-06T09:08:48.673Z,17.32
2023-03-06T09:09:52.977Z,17.39
2023-03-06T09:10:56.937Z,17.65
2023-03-06T09:12:00.846Z,17.93
2023-03-06T09:13:04.487Z,18.18
2023-03-06T09:14:08.017Z,18.52
2023-03-06T09:15:11.976Z,18.36
2023-03-06T09:16:15.903Z,18.49
2023-03-06T09:17:19.493Z,18.10
2023-03-06T09:18:23.106Z,17.86
2023-03-06T09:19:27.284Z,17.60
2023-03-06T09:20:30.946Z,17.51
2023-03-06T09:21:34.578Z,17.42
2023-03-06T09:22:38.217Z,17.18
2023-03-06T09:23:41.666Z,16.95
2023-03-06T09:24:45.512Z,16.69
2023-03-06T09:25:56.005Z,16.73
2023-03-06T09:26:59.964Z,16.65
2023-03-06T09:28:11.215Z,16.57
2023-03-06T09:29:16.876Z,16.73
2023-03-06T09:30:20.443Z,16.68
2023-03-06T09:31:24.382Z,16.58
2023-03-06T09:32:28.055Z,16.51
2023-03-06T09:33:32.545Z,16.31
2023-03-06T09:34:37.084Z,16.33
2023-03-06T09:35:59.132Z,16.29
2023-03-06T09:37:05.774Z,16.25
2023-03-06T09:38:09.320Z,15.94
2023-03-06T09:39:12.984Z,15.90
2023-03-06T09:40:24.419Z,15.86
2023-03-06T09:41:46.195Z,15.80
2023-03-06T09:42:50.228Z,15.81
2023-03-06T09:43:56.520Z,15.74
2023-03-06T09:45:03.184Z,15.56
2023-03-06T09:46:20.958Z,15.58
2023-03-06T09:47:48.411Z,15.51
2023-03-06T09:49:17.617Z,15.52
2023-03-06T09:51:05.636Z,15.37
2023-03-06T09:52:21.302Z,15.32
2023-03-06T09:53:28.002Z,15.19
2023-03-06T09:54:40.732Z,15.23
2023-03-06T09:55:45.130Z,15.22
2023-03-06T09:56:49.866Z,15.28
2023-03-06T09:58:02.227Z,15.23
2023-03-06T09:59:15.132Z,15.28
2023-03-06T10:00:24.519Z,15.32
2023-03-06T10:01:33.006Z,15.38
2023-03-06T10:02:47.580Z,15.41
2023-03-06T10:03:59.057Z,15.53
2023-03-06T10:05:05.121Z,15.58
2023-03-06T10:06:16.807Z,15.54
2023-03-06T10:07:26.865Z,15.43
2023-03-06T10:09:02.507Z,15.46
2023-03-06T10:10:07.332Z,15.47
2023-03-06T10:11:11.618Z,15.47
2023-03-06T10:12:24.964Z,15.57
2023-03-06T10:13:46.257Z,15.64
2023-03-06T10:14:56.932Z,15.69
2023-03-06T10:16:22.362Z,15.57
2023-03-06T10:17:26.850Z,15.82
2023-03-06T10:18:30.293Z,15.87
2023-03-06T10:19:38.329Z,15.82
2023-03-06T10:21:04.742Z,15.94
2023-03-06T10:26:23.392Z,16.80
2023-03-06T10:28:13.716Z,16.87
2023-03-06T10:29:27.074Z,16.91
2023-03-06T10:30:57.214Z,16.77
2023-03-06T10:32:24.250Z,16.59
2023-03-06T10:33:56.435Z,16.48
2023-03-06T10:35:02.234Z,16.65
2023-03-06T10:36:08.615Z,16.65
2023-03-06T10:37:20.637Z,16.76
2023-03-06T10:38:32.602Z,16.75
2023-03-06T10:39:36.717Z,16.50
2023-03-06T10:41:01.007Z,16.37
2023-03-06T10:42:06.134Z,16.29
2023-03-06T10:43:13.726Z,16.37
2023-03-06T10:44:19.276Z,16.43
2023-03-06T10:45:24.386Z,16.46
2023-03-06T10:46:32.689Z,16.48
2023-03-06T10:47:37.865Z,16.52
2023-03-06T10:48:42.506Z,16.58
2023-03-06T10:49:46.616Z,16.68
2023-03-06T10:50:50.749Z,16.57
2023-03-06T10:52:04.806Z,16.50
2023-03-06T10:53:16.995Z,16.60
2023-03-06T10:54:23.807Z,16.68
2023-03-06T10:55:31.825Z,16.77
2023-03-06T10:56:37.528Z,16.73
2023-03-06T10:57:41.625Z,16.70
2023-03-06T10:58:45.569Z,16.82
2023-03-06T10:59:54.092Z,16.69
2023-03-06T11:01:10.506Z,16.48
2023-03-06T11:02:41.954Z,16.40
2023-03-06T11:03:46.124Z,16.34
2023-03-06T11:04:53.497Z,16.36
2023-03-06T11:06:04.556Z,16.34
2023-03-06T11:07:15.571Z,16.27
2023-03-06T11:08:23.703Z,16.39
2023-03-06T11:09:27.290Z,16.36
2023-03-06T11:10:32.440Z,16.35
2023-03-06T11:11:38.118Z,16.35
2023-03-06T11:12:44.721Z,16.36
2023-03-06T11:13:56.816Z,16.22
2023-03-06T11:15:15.327Z,15.99
2023-03-06T11:16:25.780Z,15.84
2023-03-06T11:17:31.472Z,15.82
2023-03-06T11:18:43.729Z,15.81
2023-03-06T11:19:47.345Z,16.01
2023-03-06T11:20:53.306Z,16.05
2023-03-06T11:22:20.477Z,16.14
2023-03-06T11:23:48.387Z,16.26
2023-03-06T11:24:52.129Z,16.19
2023-03-06T11:26:24.107Z,16.29
2023-03-06T11:27:35.054Z,16.37
2023-03-06T11:28:41.329Z,16.26
2023-03-06T11:29:51.656Z,16.37
2023-03-06T11:31:05.369Z,16.30
2023-03-06T11:32:22.173Z,16.36
2023-03-06T11:33:48.724Z,16.30
2023-03-06T11:35:19.128Z,16.25
2023-03-06T11:36:41.086Z,16.00
2023-03-06T11:37:53.731Z,16.06
2023-03-06T11:38:57.737Z,15.98
2023-03-06T11:40:16.739Z,16.07
2023-03-06T11:41:34.968Z,16.27
2023-03-06T11:42:57.345Z,16.42
2023-03-06T11:44:21.588Z,16.37
2023-03-06T11:45:48.778Z,16.52
2023-03-06T11:47:04.007Z,16.56
2023-03-06T11:48:17.111Z,16.70
2023-03-06T11:49:44.132Z,16.76
2023-03-06T11:50:53.108Z,16.54
2023-03-06T11:51:57.634Z,16.50
2023-03-06T11:53:02.867Z,16.47
2023-03-06T11:54:06.907Z,16.38
2023-03-06T11:55:15.073Z,16.17
2023-03-06T11:56:23.644Z,16.00
2023-03-06T11:57:36.308Z,15.94
2023-03-06T11:59:08.668Z,15.93
2023-03-06T12:00:39.135Z,15.92
2023-03-06T12:01:57.088Z,15.83
2023-03-06T12:03:13.797Z,15.99
2023-03-06T12:04:39.916Z,16.17
2023-03-06T12:06:17.031Z,16.05
2023-03-06T12:07:35.733Z,16.02
2023-03-06T12:08:54.875Z,16.16
2023-03-06T12:10:19.189Z,16.28
2023-03-06T12:11:53.153Z,16.22
2023-03-06T12:13:17.700Z,16.21
2023-03-06T12:14:21.118Z,16.17
2023-03-06T12:15:43.463Z,16.16
2023-03-06T12:16:54.835Z,15.96
2023-03-06T12:18:20.206Z,15.77
2023-03-06T12:19:47.848Z,15.80
2023-03-06T12:21:15.580Z,15.82
2023-03-06T12:22:33.955Z,15.76
2023-03-06T12:24:01.923Z,15.74
2023-03-06T12:25:32.203Z,15.57
2023-03-06T12:27:13.189Z,15.47
2023-03-06T12:28:30.525Z,15.35
2023-03-06T12:30:01.520Z,15.41
2023-03-06T12:31:43.698Z,15.24
2023-03-06T12:33:02.104Z,15.19
2023-03-06T12:34:29.827Z,15.27
2023-03-06T12:35:50.101Z,15.27
2023-03-06T12:36:59.648Z,15.37
2023-03-06T12:38:34.723Z,15.39
2023-03-06T12:39:48.938Z,15.39
2023-03-06T12:41:04.487Z,15.42
2023-03-06T12:42:23.125Z,15.39
2023-03-06T12:44:13.337Z,15.28
2023-03-06T12:45:22.875Z,15.20
2023-03-06T12:46:27.943Z,15.36
2023-03-06T12:47:44.416Z,15.48
2023-03-06T12:49:20.163Z,15.58
2023-03-06T12:50:29.505Z,15.69
2023-03-06T12:51:33.264Z,15.78
2023-03-06T12:52:36.737Z,15.80
2023-03-06T12:53:43.248Z,15.76
2023-03-06T12:54:46.789Z,15.78
2023-03-06T12:55:50.796Z,15.86
2023-03-06T12:56:54.663Z,15.80
2023-03-06T12:57:58.658Z,15.60
2023-03-06T12:59:03.120Z,15.64
2023-03-06T13:00:07.713Z,15.58
2023-03-06T13:01:32.539Z,15.55
2023-03-06T13:03:00.799Z,15.46
2023-03-06T13:04:23.709Z,15.36
2023-03-06T13:05:43.958Z,15.50
2023-03-06T13:07:04.961Z,15.52
2023-03-06T13:08:26.111Z,15.56
2023-03-06T13:09:48.979Z,15.53
2023-03-06T13:11:08.243Z,15.48
2023-03-06T13:12:25.769Z,15.57
2023-03-06T13:13:30.916Z,15.61
2023-03-06T13:14:35.740Z,15.73
2023-03-06T13:15:43.849Z,15.76
2023-03-06T13:16:47.888Z,15.71
2023-03-06T13:17:51.513Z,15.72
2023-03-06T13:19:14.440Z,15.73
2023-03-06T13:20:41.726Z,15.75
2023-03-06T13:21:54.953Z,15.59
2023-03-06T13:22:59.421Z,15.54
2023-03-06T13:24:06.169Z,15.58
2023-03-06T13:25:18.516Z,15.68
2023-03-06T13:26:27.957Z,15.71
2023-03-06T13:27:55.748Z,15.85
2023-03-06T13:28:59.862Z,15.88
2023-03-06T13:30:22.016Z,15.83
2023-03-06T13:31:34.212Z,15.91
2023-03-06T13:32:37.870Z,15.88
2023-03-06T13:33:41.653Z,15.82
2023-03-06T13:34:50.937Z,15.79
2023-03-06T13:35:59.087Z,15.76
2023-03-06T13:37:22.197Z,15.80
2023-03-06T13:38:33.792Z,15.72
2023-03-06T13:40:01.511Z,15.84
2023-03-06T13:41:23.588Z,15.87
2023-03-06T13:42:28.153Z,15.81
2023-03-06T13:43:32.031Z,15.80
2023-03-06T13:44:41.954Z,15.83
2023-03-06T13:45:45.813Z,15.78
2023-03-06T13:47:21.260Z,15.71
2023-03-06T13:48:44.762Z,15.63
2023-03-06T13:49:50.302Z,15.78
2023-03-06T13:50:56.517Z,15.67
2023-03-06T13:52:30.626Z,15.68
2023-03-06T13:53:45.458Z,15.67
2023-03-06T13:55:00.804Z,15.67
2023-03-06T13:56:30.025Z,15.75
2023-03-06T13:57:54.723Z,15.73
2023-03-06T13:59:16.884Z,15.69
2023-03-06T14:00:36.282Z,15.51
2023-03-06T14:01:58.557Z,15.49
2023-03-06T14:03:35.108Z,15.44
2023-03-06T14:04:59.036Z,15.37
2023-03-06T14:06:03.210Z,15.57
2023-03-06T14:07:09.153Z,15.51
2023-03-06T14:08:17.795Z,15.51
2023-03-06T14:09:21.251Z,15.70
2023-03-06T14:10:25.717Z,15.72
2023-03-06T14:11:29.809Z,15.94
2023-03-06T14:12:38.560Z,15.95
2023-03-06T14:13:49.590Z,15.88
2023-03-06T14:15:00.104Z,15.84
2023-03-06T14:16:03.195Z,15.80
2023-03-06T14:17:07.272Z,15.81
2023-03-06T14:18:40.805Z,15.88
2023-03-06T14:19:44.705Z,15.93
2023-03-06T14:21:08.168Z,15.88
2023-03-06T14:22:17.821Z,15.88
2023-03-06T14:23:30.476Z,15.89
2023-03-06T14:24:39.528Z,15.77
2023-03-06T14:25:43.504Z,15.74
2023-03-06T14:26:56.065Z,15.66
2023-03-06T14:28:12.337Z,15.59
2023-03-06T14:29:25.537Z,15.52
2023-03-06T14:30:29.135Z,15.49
2023-03-06T14:31:34.828Z,15.50
2023-03-06T14:32:39.542Z,15.49
2023-03-06T14:34:02.092Z,15.49
2023-03-06T14:35:06.424Z,15.48
2023-03-06T14:36:14.236Z,15.55
2023-03-06T14:37:21.518Z,15.63
2023-03-06T14:38:24.908Z,15.69
2023-03-06T14:39:47.700Z,15.64